Time;durP1;ratioP1;P1;durP2;ratioP2;P2;SDS_P1;SDS_P2;PMS_P1;PMS_P2;Temp;Humidity;BMP_temperature;BMP_pressure;BME280_temperature;BME280_humidity;BME280_pressure;Samples;Min_cycle;Max_cycle;Signal;HPM_P1;HPM_P2
2022/11/19 00:02:07;;;;;;;;;;;5.60;99.90;;;;;;4987441;28;20329;-73
2022/11/19 00:04:32;;;;;;;;;;;5.50;99.90;;;;;;5005765;28;19924;-74
2022/11/19 00:06:58;;;;;;;;;;;5.50;99.90;;;;;;5000596;28;19976;-74
2022/11/19 00:09:23;;;;;;;;;;;5.50;99.90;;;;;;4986228;28;19913;-74
2022/11/19 00:14:33;;;;;;;;;;;5.50;99.90;;;;;;5006884;28;20348;-75
2022/11/19 00:16:59;;;;;;;;;;;5.50;99.90;;;;;;4986129;28;19921;-72
2022/11/19 00:19:25;;;;;;;;;;;5.50;99.90;;;;;;4996515;28;19909;-73
2022/11/19 00:21:50;;;;;;;;;;;5.50;99.90;;;;;;4991043;28;19991;-74
2022/11/19 00:24:17;;;;;;;;;;;5.50;99.90;;;;;;4985444;28;20269;-74
2022/11/19 00:26:42;;;;;;;;;;;5.50;99.90;;;;;;5007436;28;19917;-74
2022/11/19 00:29:09;;;;;;;;;;;5.50;99.90;;;;;;5005651;28;19918;-73
2022/11/19 00:31:34;;;;;;;;;;;5.50;99.90;;;;;;4987844;28;19925;-74
2022/11/19 00:34:00;;;;;;;;;;;5.50;99.90;;;;;;4982726;28;20235;-73
2022/11/19 00:36:25;;;;;;;;;;;5.50;99.90;;;;;;4986641;28;19936;-73
2022/11/19 00:38:51;;;;;;;;;;;5.40;99.90;;;;;;5000439;28;19968;-75
2022/11/19 00:41:16;;;;;;;;;;;5.50;99.90;;;;;;5002742;28;19996;-74
2022/11/19 00:43:48;;;;;;;;;;;5.40;99.90;;;;;;5001108;28;19917;-74
2022/11/19 00:46:18;;;;;;;;;;;5.40;99.90;;;;;;4985274;28;19923;-73
2022/11/19 00:48:44;;;;;;;;;;;5.40;99.90;;;;;;5001322;28;19917;-74
2022/11/19 00:51:10;;;;;;;;;;;5.30;99.90;;;;;;5003585;28;19967;-72
2022/11/19 00:53:36;;;;;;;;;;;5.30;99.90;;;;;;4984131;28;19917;-74
2022/11/19 00:56:02;;;;;;;;;;;5.30;99.90;;;;;;5002945;28;19944;-74
2022/11/19 00:58:28;;;;;;;;;;;5.30;99.90;;;;;;4999381;28;19913;-74
2022/11/19 01:00:53;;;;;;;;;;;5.30;99.90;;;;;;4984557;28;19925;-73
2022/11/19 01:03:19;;;;;;;;;;;5.30;99.90;;;;;;4984649;28;19921;-74
2022/11/19 01:05:44;;;;;;;;;;;5.20;99.90;;;;;;5000274;28;20334;-73
2022/11/19 01:08:10;;;;;;;;;;;5.20;99.90;;;;;;5000360;28;19996;-74
2022/11/19 01:10:35;;;;;;;;;;;5.20;99.90;;;;;;5004170;28;19913;-74
2022/11/19 01:15:48;;;;;;;;;;;5.10;99.90;;;;;;5002217;28;19949;-74
2022/11/19 01:18:14;;;;;;;;;;;5.10;99.90;;;;;;4984730;28;19965;-74
2022/11/19 01:20:40;;;;;;;;;;;5.10;99.90;;;;;;5012263;28;19917;-73
2022/11/19 01:23:05;;;;;;;;;;;5.10;99.90;;;;;;5013868;28;20389;-73
2022/11/19 01:25:31;;;;;;;;;;;5.10;99.90;;;;;;4987350;28;20341;-74
2022/11/19 01:27:57;;;;;;;;;;;5.20;99.90;;;;;;4985504;28;19917;-74
2022/11/19 01:30:23;;;;;;;;;;;5.10;99.90;;;;;;4985020;28;19914;-74
2022/11/19 01:32:48;;;;;;;;;;;5.10;99.90;;;;;;5006271;28;20370;-73
2022/11/19 01:35:14;;;;;;;;;;;5.00;99.90;;;;;;4988074;28;19918;-73
2022/11/19 01:37:40;;;;;;;;;;;5.10;99.90;;;;;;5003014;28;19913;-73
2022/11/19 01:40:05;;;;;;;;;;;5.00;99.90;;;;;;4985174;28;19914;-74
2022/11/19 01:42:52;;;;;;;;;;;5.00;99.90;;;;;;4999752;28;19925;-74
2022/11/19 01:45:23;;;;;;;;;;;4.90;99.90;;;;;;4989697;28;20442;-73
2022/11/19 01:47:49;;;;;;;;;;;4.90;99.90;;;;;;5009255;28;20289;-72
2022/11/19 01:50:15;;;;;;;;;;;4.90;99.90;;;;;;4985761;28;19918;-74
2022/11/19 01:52:41;;;;;;;;;;;4.90;99.90;;;;;;5000951;28;20020;-73
2022/11/19 01:55:07;;;;;;;;;;;4.90;99.90;;;;;;4985018;28;19957;-74
2022/11/19 01:57:34;;;;;;;;;;;4.90;99.90;;;;;;4998132;28;19981;-74
2022/11/19 01:59:59;;;;;;;;;;;4.90;99.90;;;;;;5003467;28;20004;-75
2022/11/19 02:02:25;;;;;;;;;;;4.90;99.90;;;;;;5004014;28;19961;-74
2022/11/19 02:04:51;;;;;;;;;;;4.80;99.90;;;;;;5002100;28;19917;-74
2022/11/19 02:07:20;;;;;;;;;;;4.90;99.90;;;;;;4984523;28;20092;-73
2022/11/19 02:09:45;;;;;;;;;;;4.80;99.90;;;;;;4999082;28;19918;-74
2022/11/19 02:12:11;;;;;;;;;;;4.80;99.90;;;;;;4986157;28;19913;-74
2022/11/19 02:14:36;;;;;;;;;;;4.80;99.90;;;;;;5006444;28;19917;-74
2022/11/19 02:17:15;;;;;;;;;;;4.80;99.90;;;;;;4998123;28;19953;-74
2022/11/19 02:19:53;;;;;;;;;;;4.80;99.90;;;;;;5017786;28;19935;-73
2022/11/19 02:22:19;;;;;;;;;;;4.80;99.90;;;;;;5018834;28;20028;-73
2022/11/19 02:24:49;;;;;;;;;;;4.70;99.90;;;;;;5019345;28;19925;-74
2022/11/19 02:27:20;;;;;;;;;;;4.80;99.90;;;;;;5016789;28;19930;-73
2022/11/19 02:29:58;;;;;;;;;;;4.70;99.90;;;;;;4992792;28;19918;-74
2022/11/19 02:32:30;;;;;;;;;;;4.80;99.90;;;;;;5005657;28;20382;-74
2022/11/19 02:34:57;;;;;;;;;;;4.70;99.90;;;;;;5006841;28;19923;-74
2022/11/19 02:37:25;;;;;;;;;;;4.70;99.90;;;;;;5004128;28;20386;-73
2022/11/19 02:39:53;;;;;;;;;;;4.70;99.90;;;;;;4988291;28;19924;-74
2022/11/19 02:42:26;;;;;;;;;;;4.60;99.90;;;;;;5004095;28;19917;-73
2022/11/19 02:44:58;;;;;;;;;;;4.60;99.90;;;;;;4988596;28;20378;-74
2022/11/19 02:47:30;;;;;;;;;;;4.60;99.90;;;;;;4986498;28;19937;-74
2022/11/19 02:49:58;;;;;;;;;;;4.50;99.90;;;;;;5003133;28;19910;-73
2022/11/19 02:52:23;;;;;;;;;;;4.50;99.90;;;;;;4993506;28;20429;-72
2022/11/19 02:54:49;;;;;;;;;;;4.50;99.90;;;;;;5013262;28;19917;-74
2022/11/19 02:57:14;;;;;;;;;;;4.50;99.90;;;;;;4992806;28;19929;-74
2022/11/19 03:05:31;;;;;;;;;;;4.50;99.90;;;;;;5003781;28;19976;-73
2022/11/19 03:07:57;;;;;;;;;;;4.50;99.90;;;;;;5006371;28;19914;-74
2022/11/19 03:10:25;;;;;;;;;;;4.50;99.90;;;;;;5004297;28;19920;-74
2022/11/19 03:12:53;;;;;;;;;;;4.60;99.90;;;;;;5004640;28;20432;-74
2022/11/19 03:18:15;;;;;;;;;;;4.50;99.90;;;;;;5002906;28;19924;-74
2022/11/19 03:20:45;;;;;;;;;;;4.40;99.90;;;;;;5011358;28;19991;-73
2022/11/19 03:23:14;;;;;;;;;;;4.50;99.90;;;;;;5010772;28;19917;-74
2022/11/19 03:25:40;;;;;;;;;;;4.30;99.90;;;;;;5006544;28;19913;-74
2022/11/19 03:28:11;;;;;;;;;;;4.40;99.90;;;;;;5003993;28;19940;-74
2022/11/19 03:30:38;;;;;;;;;;;4.30;99.90;;;;;;5002976;28;20445;-73
2022/11/19 03:33:07;;;;;;;;;;;4.30;99.90;;;;;;4986377;28;20342;-73
2022/11/19 03:35:45;;;;;;;;;;;4.30;99.90;;;;;;4985321;28;19925;-74
2022/11/19 03:38:13;;;;;;;;;;;4.30;99.90;;;;;;4985668;28;19917;-73
2022/11/19 03:40:40;;;;;;;;;;;4.30;99.90;;;;;;5003577;28;19953;-74
2022/11/19 03:43:07;;;;;;;;;;;4.30;99.90;;;;;;4985892;28;20456;-73
2022/11/19 03:45:34;;;;;;;;;;;4.30;99.90;;;;;;5003203;28;19960;-74
2022/11/19 03:48:00;;;;;;;;;;;4.30;99.90;;;;;;5004819;28;20528;-75
2022/11/19 03:50:45;;;;;;;;;;;4.30;99.90;;;;;;5002004;28;19971;-73
2022/11/19 03:53:10;;;;;;;;;;;4.30;99.90;;;;;;4988966;28;19917;-73
2022/11/19 03:55:59;;;;;;;;;;;4.20;99.90;;;;;;4985811;28;19928;-74
2022/11/19 03:58:25;;;;;;;;;;;4.20;99.90;;;;;;4977943;28;19924;-74
2022/11/19 04:00:51;;;;;;;;;;;4.20;99.90;;;;;;5008845;28;19917;-74
2022/11/19 04:03:16;;;;;;;;;;;4.10;99.90;;;;;;5001723;28;20385;-74
2022/11/19 04:05:41;;;;;;;;;;;4.20;99.90;;;;;;5004993;28;19914;-73
2022/11/19 04:08:07;;;;;;;;;;;4.20;99.90;;;;;;4987751;28;20000;-74
2022/11/19 04:10:32;;;;;;;;;;;4.10;99.90;;;;;;5005130;28;19918;-74
2022/11/19 04:12:58;;;;;;;;;;;4.20;99.90;;;;;;5003981;28;20374;-73
2022/11/19 04:15:23;;;;;;;;;;;4.10;99.90;;;;;;5001639;28;19968;-75
2022/11/19 04:17:49;;;;;;;;;;;4.00;99.90;;;;;;5003874;28;19963;-76
2022/11/19 04:20:14;;;;;;;;;;;4.00;99.90;;;;;;4990946;28;20447;-73
2022/11/19 04:22:40;;;;;;;;;;;4.10;99.90;;;;;;5010259;28;19917;-74
2022/11/19 04:25:06;;;;;;;;;;;4.10;99.90;;;;;;5001024;28;19921;-73
2022/11/19 04:27:32;;;;;;;;;;;4.00;99.90;;;;;;5004849;28;19917;-74
2022/11/19 04:29:57;;;;;;;;;;;3.90;99.90;;;;;;4984912;28;19928;-74
2022/11/19 04:32:23;;;;;;;;;;;3.90;99.90;;;;;;5000740;28;19925;-74
2022/11/19 04:34:48;;;;;;;;;;;4.00;99.90;;;;;;5003299;28;19921;-74
2022/11/19 04:37:14;;;;;;;;;;;3.90;99.90;;;;;;5000663;28;20397;-73
2022/11/19 04:39:39;;;;;;;;;;;3.90;99.90;;;;;;4984625;28;19918;-74
2022/11/19 04:42:05;;;;;;;;;;;3.90;99.90;;;;;;5001340;28;20334;-73
2022/11/19 04:44:31;;;;;;;;;;;3.90;99.90;;;;;;5001932;28;19913;-74
2022/11/19 04:46:58;;;;;;;;;;;3.90;99.90;;;;;;5003327;28;19927;-72
2022/11/19 04:49:24;;;;;;;;;;;3.90;99.90;;;;;;4987799;28;20000;-74
2022/11/19 04:51:49;;;;;;;;;;;3.80;99.90;;;;;;4986959;28;20370;-74
2022/11/19 04:54:14;;;;;;;;;;;3.80;99.90;;;;;;5005773;28;20342;-73
2022/11/19 04:56:40;;;;;;;;;;;3.80;99.90;;;;;;5001063;28;19924;-73
2022/11/19 04:59:06;;;;;;;;;;;3.70;99.90;;;;;;5006413;28;20360;-73
2022/11/19 05:01:31;;;;;;;;;;;3.70;99.90;;;;;;5001627;28;19917;-74
2022/11/19 05:03:57;;;;;;;;;;;3.60;99.90;;;;;;5001512;28;19964;-74
2022/11/19 05:06:22;;;;;;;;;;;3.60;99.90;;;;;;4983132;28;19935;-74
2022/11/19 05:08:47;;;;;;;;;;;3.50;99.90;;;;;;4985529;28;20457;-72
2022/11/19 05:11:13;;;;;;;;;;;3.40;99.90;;;;;;5000342;28;19921;-74
2022/11/19 05:13:39;;;;;;;;;;;3.40;99.90;;;;;;5002079;28;19917;-74
2022/11/19 05:16:04;;;;;;;;;;;3.40;99.90;;;;;;4980804;28;19921;-74
2022/11/19 05:18:30;;;;;;;;;;;3.40;99.90;;;;;;4989294;28;19924;-73
2022/11/19 05:20:55;;;;;;;;;;;3.40;99.90;;;;;;5011207;28;19932;-73
2022/11/19 05:23:21;;;;;;;;;;;3.40;99.90;;;;;;4987333;28;20409;-74
2022/11/19 05:25:46;;;;;;;;;;;3.40;99.90;;;;;;4989427;28;19913;-73
2022/11/19 05:28:12;;;;;;;;;;;3.30;99.90;;;;;;5000239;28;19929;-75
2022/11/19 05:30:37;;;;;;;;;;;3.30;99.90;;;;;;4984135;28;19917;-74
2022/11/19 05:33:03;;;;;;;;;;;3.30;99.90;;;;;;4983189;28;21106;-74
2022/11/19 05:35:28;;;;;;;;;;;3.30;99.90;;;;;;4983235;28;19921;-75
2022/11/19 05:37:54;;;;;;;;;;;3.20;99.90;;;;;;4997305;28;19917;-75
2022/11/19 05:40:19;;;;;;;;;;;3.30;99.90;;;;;;4990015;28;19918;-73
2022/11/19 05:42:45;;;;;;;;;;;3.30;99.90;;;;;;4986165;28;19929;-74
2022/11/19 05:45:11;;;;;;;;;;;3.30;99.90;;;;;;4984979;28;19924;-74
2022/11/19 05:47:36;;;;;;;;;;;3.30;99.90;;;;;;4983571;28;19924;-74
2022/11/19 05:50:02;;;;;;;;;;;3.30;99.90;;;;;;4982961;28;19920;-73
2022/11/19 05:52:28;;;;;;;;;;;3.20;99.90;;;;;;4984110;28;19949;-72
2022/11/19 05:54:53;;;;;;;;;;;3.20;99.90;;;;;;5003939;28;19968;-74
2022/11/19 05:57:19;;;;;;;;;;;3.20;99.90;;;;;;5006810;28;19920;-74
2022/11/19 05:59:44;;;;;;;;;;;3.00;99.90;;;;;;5005956;28;19913;-75
2022/11/19 06:02:10;;;;;;;;;;;3.20;99.90;;;;;;5003837;28;19922;-76
2022/11/19 06:04:36;;;;;;;;;;;3.20;99.90;;;;;;5005420;28;19914;-75
2022/11/19 06:07:01;;;;;;;;;;;3.20;99.90;;;;;;4986201;28;20003;-73
2022/11/19 06:09:27;;;;;;;;;;;3.10;99.90;;;;;;4987411;28;19929;-75
2022/11/19 06:11:52;;;;;;;;;;;3.10;99.90;;;;;;5005978;28;19928;-75
2022/11/19 06:14:22;;;;;;;;;;;3.10;99.90;;;;;;5006855;28;20655;-74
2022/11/19 06:16:48;;;;;;;;;;;3.10;99.90;;;;;;5009858;28;19925;-74
2022/11/19 06:19:13;;;;;;;;;;;3.10;99.90;;;;;;5011234;28;19978;-74
2022/11/19 06:21:39;;;;;;;;;;;3.10;99.90;;;;;;4989618;28;19949;-73
2022/11/19 06:24:05;;;;;;;;;;;3.10;99.90;;;;;;4987764;28;19971;-75
2022/11/19 06:26:30;;;;;;;;;;;3.10;99.90;;;;;;5007234;28;19913;-74
2022/11/19 06:28:56;;;;;;;;;;;3.10;99.90;;;;;;5006113;28;20373;-75
2022/11/19 06:31:22;;;;;;;;;;;3.10;99.90;;;;;;5002964;28;19913;-74
2022/11/19 06:33:48;;;;;;;;;;;3.10;99.90;;;;;;4998511;28;19924;-74
2022/11/19 06:36:13;;;;;;;;;;;3.00;99.90;;;;;;4999645;28;19953;-74
2022/11/19 06:38:39;;;;;;;;;;;3.00;99.90;;;;;;4991042;28;19914;-74
2022/11/19 06:41:04;;;;;;;;;;;3.00;99.90;;;;;;5008443;28;19913;-75
2022/11/19 06:43:30;;;;;;;;;;;3.00;99.90;;;;;;4987098;28;20389;-75
2022/11/19 06:45:55;;;;;;;;;;;3.00;99.90;;;;;;5008135;28;19928;-74
2022/11/19 06:48:21;;;;;;;;;;;3.00;99.90;;;;;;5002661;28;19918;-74
2022/11/19 06:50:46;;;;;;;;;;;2.90;99.90;;;;;;5005706;28;19918;-74
2022/11/19 06:53:12;;;;;;;;;;;2.90;99.90;;;;;;4988027;28;19917;-74
2022/11/19 06:55:38;;;;;;;;;;;2.90;99.90;;;;;;5003084;28;19921;-75
2022/11/19 06:58:04;;;;;;;;;;;2.90;99.90;;;;;;5003718;28;20475;-74
2022/11/19 07:00:29;;;;;;;;;;;2.80;99.90;;;;;;5004496;28;19991;-75
2022/11/19 07:02:55;;;;;;;;;;;2.80;99.90;;;;;;4986274;28;19918;-74
2022/11/19 07:05:20;;;;;;;;;;;2.80;99.90;;;;;;4987452;28;19923;-74
2022/11/19 07:07:46;;;;;;;;;;;2.80;99.90;;;;;;5002261;28;19973;-75
2022/11/19 07:10:11;;;;;;;;;;;2.90;99.90;;;;;;4988241;28;19948;-74
2022/11/19 07:12:37;;;;;;;;;;;2.80;99.90;;;;;;5003149;28;19913;-74
2022/11/19 07:15:02;;;;;;;;;;;2.80;99.90;;;;;;4990525;28;19918;-75
2022/11/19 07:17:28;;;;;;;;;;;2.80;99.90;;;;;;4991080;28;19917;-75
2022/11/19 07:19:53;;;;;;;;;;;2.80;99.90;;;;;;5005085;28;19917;-75
2022/11/19 07:22:19;;;;;;;;;;;2.80;99.90;;;;;;5010638;28;19924;-74
2022/11/19 07:24:44;;;;;;;;;;;2.70;99.90;;;;;;4985922;28;20403;-74
2022/11/19 07:27:10;;;;;;;;;;;2.80;99.90;;;;;;5008992;28;19964;-73
2022/11/19 07:29:37;;;;;;;;;;;2.80;99.90;;;;;;4985420;28;19917;-74
2022/11/19 07:32:03;;;;;;;;;;;2.70;99.90;;;;;;5003838;28;19914;-74
2022/11/19 07:34:28;;;;;;;;;;;2.60;99.90;;;;;;5003231;28;20016;-74
2022/11/19 07:36:54;;;;;;;;;;;2.70;99.90;;;;;;4985748;28;19920;-74
2022/11/19 07:39:19;;;;;;;;;;;2.70;99.90;;;;;;4986978;28;19967;-74
2022/11/19 07:44:29;;;;;;;;;;;2.70;99.90;;;;;;5002703;28;19968;-75
2022/11/19 07:46:55;;;;;;;;;;;2.70;99.90;;;;;;5005369;28;19941;-74
2022/11/19 07:49:20;;;;;;;;;;;2.60;99.90;;;;;;4991276;28;19980;-74
2022/11/19 07:51:46;;;;;;;;;;;2.60;99.90;;;;;;5007420;28;19918;-75
2022/11/19 07:54:13;;;;;;;;;;;2.60;99.90;;;;;;4989557;28;20020;-74
2022/11/19 07:56:38;;;;;;;;;;;2.60;99.90;;;;;;4986430;28;19921;-75
2022/11/19 07:59:04;;;;;;;;;;;2.60;99.90;;;;;;4986431;28;20592;-73
2022/11/19 08:01:29;;;;;;;;;;;2.70;99.90;;;;;;5003750;28;19917;-76
2022/11/19 08:03:55;;;;;;;;;;;2.60;99.90;;;;;;5004151;28;20309;-74
2022/11/19 08:06:21;;;;;;;;;;;2.70;99.90;;;;;;5000841;28;20366;-74
2022/11/19 08:08:46;;;;;;;;;;;2.70;99.90;;;;;;5003882;28;19981;-75
2022/11/19 08:11:13;;;;;;;;;;;2.70;99.90;;;;;;5008485;28;19924;-75
2022/11/19 08:13:38;;;;;;;;;;;2.70;99.90;;;;;;4990435;28;19981;-76
2022/11/19 08:16:05;;;;;;;;;;;2.70;99.90;;;;;;4987882;28;19965;-75
2022/11/19 08:18:31;;;;;;;;;;;2.60;99.90;;;;;;5004222;28;19964;-74
2022/11/19 08:21:02;;;;;;;;;;;2.70;99.90;;;;;;4986054;28;19917;-74
2022/11/19 08:23:27;;;;;;;;;;;2.60;99.90;;;;;;4989740;28;19920;-73
2022/11/19 08:25:53;;;;;;;;;;;2.60;99.90;;;;;;5012041;28;20471;-74
2022/11/19 08:28:18;;;;;;;;;;;2.70;99.90;;;;;;5009547;28;20405;-74
2022/11/19 08:30:45;;;;;;;;;;;2.60;99.90;;;;;;5014539;28;19917;-73
2022/11/19 08:33:11;;;;;;;;;;;2.60;99.90;;;;;;5007979;28;19968;-72
2022/11/19 08:35:36;;;;;;;;;;;2.60;99.90;;;;;;5003167;28;19941;-74
2022/11/19 08:38:02;;;;;;;;;;;2.50;99.90;;;;;;5012241;28;20354;-74
2022/11/19 08:40:28;;;;;;;;;;;2.50;99.90;;;;;;5013552;28;19960;-74
2022/11/19 08:42:59;;;;;;;;;;;2.50;99.90;;;;;;5017564;28;19944;-73
2022/11/19 08:45:53;;;;;;;;;;;2.60;99.90;;;;;;5022789;28;19921;-73
2022/11/19 08:48:18;;;;;;;;;;;2.60;99.90;;;;;;5015952;28;19939;-74
2022/11/19 08:50:44;;;;;;;;;;;2.40;99.90;;;;;;5015665;28;19996;-72
2022/11/19 08:53:09;;;;;;;;;;;2.40;99.90;;;;;;5023388;28;19923;-74
2022/11/19 08:55:35;;;;;;;;;;;2.30;99.90;;;;;;5013601;28;19984;-74
2022/11/19 08:58:00;;;;;;;;;;;2.30;99.90;;;;;;5008164;28;19974;-73
2022/11/19 09:00:26;;;;;;;;;;;2.30;99.90;;;;;;5009750;28;20016;-74
2022/11/19 09:02:51;;;;;;;;;;;2.20;99.90;;;;;;5007211;28;20305;-75
2022/11/19 09:05:17;;;;;;;;;;;2.10;99.90;;;;;;5015776;28;19920;-74
2022/11/19 09:07:42;;;;;;;;;;;2.20;99.90;;;;;;5016735;28;20012;-75
2022/11/19 09:10:08;;;;;;;;;;;2.20;99.90;;;;;;5018343;28;20051;-74
2022/11/19 09:12:34;;;;;;;;;;;2.10;99.90;;;;;;5016689;28;19914;-73
2022/11/19 09:14:59;;;;;;;;;;;2.10;99.90;;;;;;5002840;28;19937;-75
2022/11/19 09:17:25;;;;;;;;;;;2.10;99.90;;;;;;5014750;28;19913;-75
2022/11/19 09:19:50;;;;;;;;;;;2.10;99.90;;;;;;5002674;28;19944;-74
2022/11/19 09:22:16;;;;;;;;;;;2.10;99.90;;;;;;5009448;28;20328;-74
2022/11/19 09:24:41;;;;;;;;;;;2.00;99.90;;;;;;5008552;28;19929;-75
2022/11/19 09:27:06;;;;;;;;;;;2.00;99.90;;;;;;5000583;28;19909;-75
2022/11/19 09:29:32;;;;;;;;;;;2.00;99.90;;;;;;5007342;28;20028;-75
2022/11/19 09:31:57;;;;;;;;;;;2.00;99.90;;;;;;5001680;28;20044;-75
2022/11/19 09:34:23;;;;;;;;;;;2.10;99.90;;;;;;4999965;28;19921;-75
2022/11/19 09:36:50;;;;;;;;;;;2.20;99.90;;;;;;5008244;28;19967;-75
2022/11/19 09:39:16;;;;;;;;;;;2.20;99.90;;;;;;4993862;28;19921;-75
2022/11/19 09:41:44;;;;;;;;;;;2.20;99.90;;;;;;5007453;28;19914;-74
2022/11/19 09:44:25;;;;;;;;;;;2.10;99.90;;;;;;5002829;28;19918;-75
2022/11/19 09:47:09;;;;;;;;;;;2.10;99.90;;;;;;5007286;28;19941;-75
2022/11/19 09:49:42;;;;;;;;;;;2.10;99.90;;;;;;4983431;28;20301;-75
2022/11/19 09:52:17;;;;;;;;;;;2.00;99.90;;;;;;4979677;28;19918;-76
2022/11/19 09:54:48;;;;;;;;;;;2.00;99.90;;;;;;5001387;28;19917;-76
2022/11/19 09:57:17;;;;;;;;;;;2.00;99.90;;;;;;5000051;28;19970;-76
2022/11/19 09:59:42;;;;;;;;;;;2.00;99.90;;;;;;4986070;28;19958;-75
2022/11/19 10:02:16;;;;;;;;;;;1.90;99.90;;;;;;5000960;28;19914;-75
2022/11/19 10:04:41;;;;;;;;;;;1.90;99.90;;;;;;5001957;28;19918;-74
2022/11/19 10:07:27;;;;;;;;;;;1.90;99.90;;;;;;5001078;28;20305;-74
2022/11/19 10:09:52;;;;;;;;;;;1.90;99.90;;;;;;4983872;28;19940;-74
2022/11/19 10:12:18;;;;;;;;;;;1.80;99.90;;;;;;4989908;28;19914;-75
2022/11/19 10:15:04;;;;;;;;;;;1.80;99.90;;;;;;4990357;28;19985;-75
2022/11/19 10:17:48;;;;;;;;;;;1.80;99.90;;;;;;5002451;28;20007;-75
2022/11/19 10:20:32;;;;;;;;;;;1.80;99.90;;;;;;4998171;28;19918;-75
2022/11/19 10:23:13;;;;;;;;;;;1.80;99.90;;;;;;4996942;28;19917;-74
2022/11/19 10:25:41;;;;;;;;;;;1.90;99.90;;;;;;4983189;28;19988;-75
2022/11/19 10:28:10;;;;;;;;;;;2.00;99.90;;;;;;4995697;28;19914;-75
2022/11/19 10:30:36;;;;;;;;;;;2.00;99.90;;;;;;5001247;28;19980;-76
2022/11/19 10:33:03;;;;;;;;;;;2.20;99.90;;;;;;4982438;28;20005;-75
2022/11/19 10:35:37;;;;;;;;;;;2.20;99.90;;;;;;5000798;28;19921;-75
2022/11/19 10:38:05;;;;;;;;;;;2.20;99.90;;;;;;4998261;28;19939;-75
2022/11/19 10:40:38;;;;;;;;;;;2.20;99.90;;;;;;4983527;28;20276;-72
2022/11/19 10:43:13;;;;;;;;;;;2.30;99.90;;;;;;5005483;28;20447;-74
2022/11/19 10:45:38;;;;;;;;;;;2.30;99.90;;;;;;4983328;28;19928;-75
2022/11/19 10:48:11;;;;;;;;;;;2.30;99.90;;;;;;4986071;28;19921;-74
2022/11/19 10:50:36;;;;;;;;;;;2.30;99.90;;;;;;5015604;28;19901;-75
2022/11/19 10:53:24;;;;;;;;;;;2.40;99.90;;;;;;5023486;28;19937;-75
2022/11/19 10:55:52;;;;;;;;;;;2.40;99.90;;;;;;5022541;28;19917;-75
2022/11/19 10:58:24;;;;;;;;;;;2.50;99.90;;;;;;5000828;28;19994;-75
2022/11/19 11:00:52;;;;;;;;;;;2.60;99.90;;;;;;5003431;28;19940;-73
2022/11/19 11:03:22;;;;;;;;;;;2.70;99.90;;;;;;5010014;28;19987;-74
2022/11/19 11:05:54;;;;;;;;;;;3.10;99.90;;;;;;5011494;28;19967;-76
2022/11/19 11:08:20;;;;;;;;;;;3.70;99.90;;;;;;5009929;28;19928;-75
2022/11/19 11:10:45;;;;;;;;;;;4.20;99.90;;;;;;5004558;28;19921;-75
2022/11/19 11:16:05;;;;;;;;;;;4.50;99.90;;;;;;5009320;28;20483;-75
2022/11/19 11:18:31;;;;;;;;;;;4.20;99.90;;;;;;5016792;28;19943;-75
2022/11/19 11:20:58;;;;;;;;;;;3.90;99.90;;;;;;5011533;28;19968;-74
2022/11/19 11:23:24;;;;;;;;;;;3.60;99.90;;;;;;5009689;28;19929;-75
2022/11/19 11:25:52;;;;;;;;;;;3.50;99.90;;;;;;5008887;28;19924;-75
2022/11/19 11:28:19;;;;;;;;;;;3.40;99.90;;;;;;5009719;28;20392;-76
2022/11/19 11:30:57;;;;;;;;;;;3.30;99.90;;;;;;5002810;28;20015;-75
2022/11/19 11:33:23;;;;;;;;;;;3.30;99.90;;;;;;4996455;28;19917;-76
2022/11/19 11:35:49;;;;;;;;;;;3.20;99.90;;;;;;5008621;28;20274;-76
2022/11/19 11:38:16;;;;;;;;;;;3.30;99.90;;;;;;5004458;28;19940;-76
2022/11/19 11:40:52;;;;;;;;;;;3.30;99.90;;;;;;4998884;28;20300;-76
2022/11/19 11:43:17;;;;;;;;;;;3.20;99.90;;;;;;5007738;28;19920;-76
2022/11/19 11:45:42;;;;;;;;;;;3.30;99.90;;;;;;5009577;28;20301;-76
2022/11/19 11:48:17;;;;;;;;;;;3.20;99.90;;;;;;4999910;28;19968;-76
2022/11/19 11:50:46;;;;;;;;;;;3.30;99.90;;;;;;4997877;28;20012;-75
2022/11/19 11:53:13;;;;;;;;;;;3.30;99.90;;;;;;5006348;28;19980;-77
2022/11/19 11:55:38;;;;;;;;;;;3.20;99.90;;;;;;5003356;28;20468;-75
2022/11/19 11:58:05;;;;;;;;;;;3.20;99.90;;;;;;5000323;28;19962;-73
2022/11/19 12:00:31;;;;;;;;;;;3.20;99.90;;;;;;5012120;28;19927;-75
2022/11/19 12:03:17;;;;;;;;;;;3.30;99.90;;;;;;4994383;28;19977;-76
2022/11/19 12:05:49;;;;;;;;;;;3.20;99.90;;;;;;5005609;28;19917;-74
2022/11/19 12:08:14;;;;;;;;;;;3.30;99.90;;;;;;4996687;28;19913;-76
2022/11/19 12:10:43;;;;;;;;;;;3.30;99.90;;;;;;5008118;28;19924;-74
2022/11/19 12:13:34;;;;;;;;;;;3.20;99.90;;;;;;5004122;28;19921;-76
2022/11/19 12:16:00;;;;;;;;;;;3.10;99.90;;;;;;4997436;28;19921;-75
2022/11/19 12:18:37;;;;;;;;;;;3.20;99.90;;;;;;5005808;28;19925;-75
2022/11/19 12:21:10;;;;;;;;;;;3.20;99.90;;;;;;5014609;28;19914;-75
2022/11/19 12:23:44;;;;;;;;;;;3.20;99.90;;;;;;5010972;28;19964;-75
2022/11/19 12:26:25;;;;;;;;;;;3.30;99.90;;;;;;5005916;28;19926;-75
2022/11/19 12:28:51;;;;;;;;;;;3.40;99.90;;;;;;5001630;28;19917;-74
2022/11/19 12:31:31;;;;;;;;;;;3.50;99.90;;;;;;5006879;28;19943;-73
2022/11/19 12:34:02;;;;;;;;;;;3.50;99.90;;;;;;5000640;28;20310;-75
2022/11/19 12:36:43;;;;;;;;;;;3.60;99.90;;;;;;5011645;28;20008;-75
2022/11/19 12:39:08;;;;;;;;;;;3.70;99.90;;;;;;4996342;28;19921;-73
2022/11/19 12:41:54;;;;;;;;;;;3.60;99.90;;;;;;5001087;28;19963;-75
2022/11/19 12:44:19;;;;;;;;;;;3.70;99.90;;;;;;5005726;28;19913;-75
2022/11/19 12:46:50;;;;;;;;;;;3.70;99.90;;;;;;5007181;28;20446;-76
2022/11/19 12:49:23;;;;;;;;;;;3.80;99.90;;;;;;5004605;28;19921;-75
2022/11/19 12:52:05;;;;;;;;;;;3.80;99.90;;;;;;5006283;28;19918;-73
2022/11/19 12:54:30;;;;;;;;;;;3.80;99.90;;;;;;5002246;28;20123;-76
2022/11/19 12:56:59;;;;;;;;;;;3.80;99.90;;;;;;4991418;28;20691;-75
2022/11/19 12:59:27;;;;;;;;;;;3.80;99.90;;;;;;5006165;28;20393;-76
2022/11/19 13:01:53;;;;;;;;;;;3.90;99.90;;;;;;5004117;28;19918;-75
2022/11/19 13:04:19;;;;;;;;;;;3.80;99.90;;;;;;5005345;28;19929;-74
2022/11/19 13:06:47;;;;;;;;;;;3.80;99.90;;;;;;5006148;28;19925;-76
2022/11/19 13:09:20;;;;;;;;;;;3.80;99.90;;;;;;4999322;28;19913;-75
2022/11/19 13:11:52;;;;;;;;;;;3.70;99.90;;;;;;5003507;28;20043;-74
2022/11/19 13:14:39;;;;;;;;;;;3.70;99.90;;;;;;5001759;28;19917;-75
2022/11/19 13:17:06;;;;;;;;;;;3.70;99.90;;;;;;4994356;28;20393;-75
2022/11/19 13:19:33;;;;;;;;;;;3.70;99.90;;;;;;5006579;28;19917;-73
2022/11/19 13:22:06;;;;;;;;;;;3.80;99.90;;;;;;5009412;28;19913;-75
2022/11/19 13:24:40;;;;;;;;;;;3.70;99.90;;;;;;5014221;28;19925;-73
2022/11/19 13:27:10;;;;;;;;;;;3.70;99.90;;;;;;5012610;28;19921;-74
2022/11/19 13:29:41;;;;;;;;;;;3.70;99.90;;;;;;5011115;28;19920;-75
2022/11/19 13:32:16;;;;;;;;;;;3.80;99.90;;;;;;4995419;28;20386;-75
2022/11/19 13:34:57;;;;;;;;;;;3.70;99.90;;;;;;5006134;28;20293;-76
2022/11/19 13:37:22;;;;;;;;;;;3.60;99.90;;;;;;4996031;28;19984;-75
2022/11/19 13:39:54;;;;;;;;;;;3.70;99.90;;;;;;5005833;28;19953;-74
2022/11/19 13:45:05;;;;;;;;;;;3.60;99.90;;;;;;5003734;28;20485;-73
2022/11/19 13:47:40;;;;;;;;;;;3.60;99.90;;;;;;5007781;28;20344;-75
2022/11/19 13:50:12;;;;;;;;;;;3.60;99.90;;;;;;5006212;28;19940;-74
2022/11/19 13:52:41;;;;;;;;;;;3.50;99.90;;;;;;5006330;28;19950;-74
2022/11/19 13:55:21;;;;;;;;;;;3.50;99.90;;;;;;5005385;28;19925;-74
2022/11/19 13:57:47;;;;;;;;;;;3.50;99.90;;;;;;5006394;28;20377;-75
2022/11/19 14:00:12;;;;;;;;;;;3.50;99.90;;;;;;4998186;28;19921;-75
2022/11/19 14:02:38;;;;;;;;;;;3.50;99.90;;;;;;5007090;28;19966;-75
2022/11/19 14:05:06;;;;;;;;;;;3.50;99.90;;;;;;5007386;28;21098;-75
2022/11/19 14:07:50;;;;;;;;;;;3.50;99.90;;;;;;5020873;28;19951;-75
2022/11/19 14:10:19;;;;;;;;;;;3.50;99.90;;;;;;5016778;28;19918;-74
2022/11/19 14:12:50;;;;;;;;;;;3.50;99.90;;;;;;5012113;28;19921;-74
2022/11/19 14:27:16;;;;;;;;;;;3.60;99.90;;;;;;5016093;28;19928;-75
2022/11/19 14:29:44;;;;;;;;;;;3.60;99.90;;;;;;5007805;28;19952;-74
2022/11/19 14:32:10;;;;;;;;;;;3.50;99.90;;;;;;4996081;28;21330;-75
2022/11/19 14:34:41;;;;;;;;;;;3.50;99.90;;;;;;4995103;28;19917;-75
2022/11/19 14:37:18;;;;;;;;;;;3.60;99.90;;;;;;5007864;28;19949;-74
2022/11/19 14:39:45;;;;;;;;;;;3.50;99.90;;;;;;4993051;28;19924;-74
2022/11/19 14:42:15;;;;;;;;;;;3.60;99.90;;;;;;5007081;28;19917;-76
2022/11/19 14:44:41;;;;;;;;;;;3.60;99.90;;;;;;5003064;28;19964;-75
2022/11/19 14:47:22;;;;;;;;;;;3.60;99.90;;;;;;5011512;28;20309;-75
2022/11/19 14:49:51;;;;;;;;;;;3.60;99.90;;;;;;5013327;28;19917;-73
2022/11/19 14:52:21;;;;;;;;;;;3.60;99.90;;;;;;5013129;28;19914;-75
2022/11/19 14:54:52;;;;;;;;;;;3.60;99.90;;;;;;5010390;28;19999;-75
2022/11/19 14:57:20;;;;;;;;;;;3.60;99.90;;;;;;5006820;28;19924;-74
2022/11/19 14:59:49;;;;;;;;;;;3.60;99.90;;;;;;5007357;28;19917;-76
2022/11/19 15:02:25;;;;;;;;;;;3.60;99.90;;;;;;5004831;28;20289;-74
2022/11/19 15:04:54;;;;;;;;;;;3.60;99.90;;;;;;4997782;28;20079;-72
2022/11/19 15:07:45;;;;;;;;;;;3.70;99.90;;;;;;5005539;28;19973;-74
2022/11/19 15:10:14;;;;;;;;;;;3.60;99.90;;;;;;5004770;28;20293;-73
2022/11/19 15:12:42;;;;;;;;;;;3.60;99.90;;;;;;5008694;28;20545;-75